Time;durP1;ratioP1;P1;durP2;ratioP2;P2;SDS_P1;SDS_P2;PMS_P1;PMS_P2;Temp;Humidity;BMP_temperature;BMP_pressure;BME280_temperature;BME280_humidity;BME280_pressure;Samples;Min_cycle;Max_cycle;Signal;HPM_P1;HPM_P2
2022/04/12 00:01:03;;;;;;;;;;;16.70;59.70;;;;;;7395314;19;20021;-85
2022/04/12 00:03:32;;;;;;;8.63;2.85;;;16.70;59.10;;;;;;7408794;19;19922;-86
2022/04/12 00:06:01;;;;;;;4.30;2.78;;;16.70;58.90;;;;;;7377121;19;20015;-86
2022/04/12 00:08:30;;;;;;;6.90;2.90;;;16.70;59.00;;;;;;7377816;19;20011;-87
2022/04/12 00:10:59;;;;;;;4.50;3.20;;;16.60;58.90;;;;;;7374678;19;20080;-87
2022/04/12 00:13:27;;;;;;;5.30;3.03;;;16.60;59.00;;;;;;7377621;19;20046;-86
2022/04/12 00:15:59;;;;;;;8.80;3.22;;;16.60;59.00;;;;;;7378062;19;20033;-86
2022/04/12 00:21:08;;;;;;;8.70;3.38;;;16.60;59.20;;;;;;7375856;19;20011;-87
2022/04/12 00:23:37;;;;;;;9.45;3.42;;;16.50;59.20;;;;;;7378339;19;20377;-86
2022/04/12 00:26:06;;;;;;;10.27;3.53;;;16.50;59.30;;;;;;7374490;19;20050;-86
2022/04/12 00:28:35;;;;;;;8.32;2.90;;;16.50;59.30;;;;;;7375750;19;20014;-85
2022/04/12 00:31:06;;;;;;;4.80;2.90;;;16.50;59.10;;;;;;7375666;19;20015;-86
2022/04/12 00:33:35;;;;;;;5.47;3.00;;;16.50;59.00;;;;;;7395380;19;20023;-86
2022/04/12 00:36:04;;;;;;;6.18;3.10;;;16.50;59.00;;;;;;7374511;19;20082;-86
2022/04/12 00:38:35;;;;;;;9.23;3.17;;;16.50;59.00;;;;;;7375292;19;20078;-87
2022/04/12 00:41:05;;;;;;;4.20;2.97;;;16.40;59.00;;;;;;7373116;19;20442;-86
2022/04/12 00:43:36;;;;;;;6.07;3.13;;;16.40;59.20;;;;;;7376263;19;20014;-86
2022/04/12 00:46:08;;;;;;;8.88;3.50;;;16.40;59.20;;;;;;7373599;19;20082;-85
2022/04/12 00:48:37;;;;;;;;;;;16.30;59.30;;;;;;7397424;19;20328;-85
2022/04/12 00:51:06;;;;;;;6.43;3.03;;;16.30;59.70;;;;;;7377332;19;19968;-84
2022/04/12 00:53:35;;;;;;;7.95;3.58;;;16.30;59.60;;;;;;7377267;19;20463;-85
2022/04/12 00:56:04;;;;;;;6.85;3.25;;;16.30;59.60;;;;;;7375078;19;20075;-85
2022/04/12 00:58:33;;;;;;;6.75;3.10;;;16.30;59.60;;;;;;7378302;19;20019;-85
2022/04/12 01:01:01;;;;;;;8.45;3.38;;;16.20;59.60;;;;;;7375640;19;20056;-85
2022/04/12 01:03:33;;;;;;;5.53;3.30;;;16.20;59.60;;;;;;7396719;19;20491;-85
2022/04/12 01:06:02;;;;;;;7.95;3.38;;;16.30;59.60;;;;;;7381607;19;20028;-84
2022/04/12 01:08:31;;;;;;;8.68;3.00;;;16.20;59.50;;;;;;7383038;19;20031;-85
2022/04/12 01:11:04;;;;;;;11.88;3.10;;;16.20;59.50;;;;;;7384894;19;20022;-85
2022/04/12 01:13:33;;;;;;;8.98;3.63;;;16.20;59.50;;;;;;7384040;19;20018;-84
2022/04/12 01:16:02;;;;;;;9.15;3.03;;;16.20;59.60;;;;;;7383644;19;20121;-84
2022/04/12 01:18:34;;;;;;;5.75;3.13;;;16.20;59.70;;;;;;7403917;19;20831;-85
2022/04/12 01:21:03;;;;;;;8.68;3.30;;;16.20;59.70;;;;;;7379605;19;20936;-84
2022/04/12 01:23:42;;;;;;;6.70;3.00;;;16.10;59.70;;;;;;7382633;19;20110;-86
2022/04/12 01:26:14;;;;;;;5.38;3.20;;;16.10;59.80;;;;;;7382224;19;20014;-85
2022/04/12 01:28:45;;;;;;;;;;;16.20;60.50;;;;;;7380881;19;20014;-85
2022/04/12 01:31:14;;;;;;;7.68;3.40;;;16.20;59.80;;;;;;7381183;19;19944;-84
2022/04/12 01:33:43;;;;;;;10.63;5.18;;;16.20;59.60;;;;;;7400169;19;20030;-85
2022/04/12 01:36:12;;;;;;;14.32;5.45;;;16.20;59.70;;;;;;7382097;19;20054;-84
2022/04/12 01:38:40;;;;;;;15.85;8.13;;;16.20;59.70;;;;;;7380410;19;20143;-85
2022/04/12 01:41:09;;;;;;;11.90;5.32;;;16.10;59.60;;;;;;7382540;19;20019;-85
2022/04/12 01:43:40;;;;;;;8.15;3.78;;;16.10;59.70;;;;;;7380854;19;20081;-84
2022/04/12 01:46:09;;;;;;;;;;;16.10;59.70;;;;;;7380409;19;20033;-85
2022/04/12 01:48:38;;;;;;;9.02;3.90;;;16.10;59.90;;;;;;7399828;19;20312;-85
2022/04/12 01:51:06;;;;;;;7.32;3.85;;;16.10;59.70;;;;;;7380762;19;20086;-85
2022/04/12 01:53:36;;;;;;;11.90;4.38;;;16.10;59.30;;;;;;7380975;19;20010;-85
2022/04/12 01:56:06;;;;;;;8.73;4.07;;;16.00;59.10;;;;;;7382375;19;20629;-84
2022/04/12 01:58:36;;;;;;;14.95;7.22;;;16.00;59.40;;;;;;7381551;19;20027;-86
2022/04/12 02:01:11;;;;;;;11.82;6.65;;;15.90;59.60;;;;;;7378037;19;20435;-85
2022/04/12 02:03:39;;;;;;;11.85;5.90;;;15.90;59.70;;;;;;7399736;19;20086;-85
2022/04/12 02:06:08;;;;;;;11.10;6.03;;;15.90;60.00;;;;;;7378944;19;20021;-85
2022/04/12 02:08:40;;;;;;;10.30;4.90;;;15.90;60.00;;;;;;7381104;19;20085;-85
2022/04/12 02:11:09;;;;;;;9.20;4.80;;;15.90;60.10;;;;;;7381146;19;20798;-85
2022/04/12 02:13:38;;;;;;;7.47;4.57;;;15.90;60.00;;;;;;7382209;19;20019;-84
2022/04/12 02:16:09;;;;;;;8.73;4.95;;;15.90;60.00;;;;;;7379602;19;20035;-83
2022/04/12 02:18:38;;;;;;;;;;;15.90;59.90;;;;;;7402663;19;20018;-84
2022/04/12 02:21:07;;;;;;;10.93;5.35;;;16.00;60.00;;;;;;7382677;19;20094;-83
2022/04/12 02:23:35;;;;;;;10.15;5.03;;;16.00;59.80;;;;;;7406759;19;20058;-84
2022/04/12 02:26:04;;;;;;;9.80;4.22;;;15.90;59.80;;;;;;7408210;19;20011;-85
2022/04/12 02:28:33;;;;;;;8.82;3.53;;;15.90;60.60;;;;;;7408303;19;20063;-84
2022/04/12 02:31:01;;;;;;;7.05;3.22;;;16.00;59.80;;;;;;7411301;19;19998;-82
2022/04/12 02:33:33;;;;;;;5.40;2.95;;;16.00;59.70;;;;;;7432490;19;20017;-85
2022/04/12 02:36:01;;;;;;;4.18;2.92;;;16.00;59.60;;;;;;7411522;19;20025;-85
2022/04/12 02:38:30;;;;;;;8.32;3.83;;;16.10;59.60;;;;;;7410506;19;20003;-85
2022/04/12 02:40:59;;;;;;;8.98;3.40;;;16.10;59.50;;;;;;7409345;19;20018;-85
2022/04/12 02:43:28;;;;;;;7.78;3.88;;;16.10;59.40;;;;;;7395593;19;20018;-85
2022/04/12 02:45:58;;;;;;;6.97;3.97;;;16.10;59.80;;;;;;7383614;19;20022;-85
2022/04/12 02:48:27;;;;;;;9.68;3.53;;;16.10;59.50;;;;;;7418343;19;20007;-85
2022/04/12 02:50:58;;;;;;;4.78;3.15;;;16.10;59.50;;;;;;7406744;19;20007;-85
2022/04/12 02:53:27;;;;;;;;;;;16.10;59.50;;;;;;7393580;19;20042;-85
2022/04/12 02:55:56;;;;;;;6.38;3.58;;;16.10;59.60;;;;;;7388308;19;19922;-84
2022/04/12 02:58:24;;;;;;;9.45;3.40;;;16.10;59.50;;;;;;7384020;19;20054;-85
2022/04/12 03:00:53;;;;;;;7.40;3.85;;;16.10;59.50;;;;;;7383562;19;20031;-83
2022/04/12 03:03:22;;;;;;;10.75;3.60;;;16.10;59.60;;;;;;7402544;19;20024;-85
2022/04/12 03:05:50;;;;;;;8.27;3.45;;;16.10;59.70;;;;;;7379571;19;20055;-85
2022/04/12 03:08:22;;;;;;;8.75;3.60;;;16.10;59.70;;;;;;7380368;19;20501;-84
2022/04/12 03:10:51;;;;;;;5.78;3.05;;;16.10;59.70;;;;;;7378813;19;20014;-85
2022/04/12 03:13:20;;;;;;;5.75;3.30;;;16.10;59.70;;;;;;7377820;19;20467;-85
2022/04/12 03:15:48;;;;;;;6.28;3.05;;;16.10;59.70;;;;;;7408198;19;20476;-84
2022/04/12 03:18:17;;;;;;;10.52;3.20;;;16.10;59.70;;;;;;7382015;19;20517;-85
2022/04/12 03:20:48;;;;;;;6.90;3.40;;;16.10;59.60;;;;;;7379199;19;20089;-85
2022/04/12 03:23:17;;;;;;;9.05;3.00;;;16.10;59.50;;;;;;7377406;19;20331;-84
2022/04/12 03:25:50;;;;;;;6.07;3.25;;;16.10;59.50;;;;;;7376081;19;20031;-85
2022/04/12 03:28:19;;;;;;;8.05;3.60;;;16.10;59.50;;;;;;7373713;19;20006;-85
2022/04/12 03:30:47;;;;;;;5.85;2.90;;;16.10;59.50;;;;;;7399318;19;20081;-85
2022/04/12 03:33:16;;;;;;;9.73;3.28;;;16.10;59.50;;;;;;7376429;19;20026;-85
2022/04/12 03:35:45;;;;;;;10.32;3.75;;;16.00;59.50;;;;;;7376958;19;20022;-85
2022/04/12 03:38:14;;;;;;;9.77;3.55;;;16.00;59.60;;;;;;7376505;19;20014;-85
2022/04/12 03:40:46;;;;;;;9.65;4.05;;;16.00;59.70;;;;;;7377279;19;20011;-85
2022/04/12 03:43:17;;;;;;;5.40;3.20;;;16.10;59.70;;;;;;7375973;19;20018;-85
2022/04/12 03:45:46;;;;;;;9.05;3.78;;;16.10;60.50;;;;;;7396244;19;20025;-85
2022/04/12 03:48:14;;;;;;;10.98;3.42;;;16.10;59.80;;;;;;7374316;19;20043;-85
2022/04/12 03:50:44;;;;;;;9.40;3.83;;;16.10;59.70;;;;;;7377067;19;20026;-86
2022/04/12 03:53:12;;;;;;;9.70;3.42;;;16.10;59.80;;;;;;7375972;19;20062;-84
2022/04/12 03:55:46;;;;;;;7.57;3.40;;;16.10;59.80;;;;;;7376193;19;20079;-85
2022/04/12 03:58:19;;;;;;;8.02;3.40;;;16.10;59.70;;;;;;7376166;19;20014;-85
2022/04/12 04:00:48;;;;;;;9.05;3.83;;;16.10;59.70;;;;;;7397954;19;20040;-85
2022/04/12 04:03:17;;;;;;;8.02;3.60;;;16.10;59.70;;;;;;7375885;19;20393;-85
2022/04/12 04:05:46;;;;;;;11.82;3.25;;;16.10;59.70;;;;;;7376433;19;20007;-85
2022/04/12 04:08:15;;;;;;;7.50;3.35;;;16.10;60.30;;;;;;7377024;19;20139;-85
2022/04/12 04:10:43;;;;;;;8.73;3.60;;;16.10;59.70;;;;;;7380040;19;20009;-86
2022/04/12 04:13:12;;;;;;;7.05;3.10;;;16.10;59.70;;;;;;7399490;19;19984;-84
2022/04/12 04:15:45;;;;;;;4.82;2.95;;;16.10;59.70;;;;;;7430055;19;20042;-85
2022/04/12 04:18:15;;;;;;;11.20;4.10;;;16.00;59.70;;;;;;7404880;19;20009;-85
2022/04/12 04:20:44;;;;;;;8.98;3.67;;;16.00;59.70;;;;;;7392746;19;20411;-84
2022/04/12 04:23:13;;;;;;;6.35;3.58;;;16.00;59.90;;;;;;7376491;19;20344;-85
2022/04/12 04:25:42;;;;;;;8.50;3.42;;;16.10;59.90;;;;;;7376315;19;20015;-85
2022/04/12 04:28:12;;;;;;;9.13;3.63;;;16.00;59.80;;;;;;7380661;19;20031;-85
2022/04/12 04:30:44;;;;;;;8.43;3.57;;;16.00;60.60;;;;;;7397849;19;20018;-85
2022/04/12 04:33:14;;;;;;;8.05;3.75;;;16.00;59.70;;;;;;7376215;19;20022;-85
2022/04/12 04:35:43;;;;;;;6.65;3.65;;;16.00;59.50;;;;;;7376166;19;20121;-85
2022/04/12 04:38:12;;;;;;;8.25;3.55;;;15.90;59.70;;;;;;7375363;19;20018;-85
2022/04/12 04:40:44;;;;;;;7.35;3.65;;;15.90;59.80;;;;;;7375441;19;20043;-86
2022/04/12 04:43:15;;;;;;;20.92;7.55;;;15.80;59.70;;;;;;7373038;19;20007;-85
2022/04/12 04:45:46;;;;;;;14.32;6.05;;;15.80;59.80;;;;;;7395871;19;20023;-84
2022/04/12 04:48:15;;;;;;;;;;;15.70;59.80;;;;;;7375131;19;20460;-84
2022/04/12 04:50:43;;;;;;;19.00;8.77;;;15.70;59.60;;;;;;7374460;19;20034;-84
2022/04/12 04:53:12;;;;;;;12.00;7.40;;;15.70;59.60;;;;;;7375095;19;20387;-85
2022/04/12 04:55:42;;;;;;;12.82;6.20;;;15.70;59.70;;;;;;7374417;19;20018;-85
2022/04/12 04:58:12;;;;;;;13.80;6.22;;;15.70;59.80;;;;;;7376143;19;25850;-84
2022/04/12 05:00:41;;;;;;;12.45;5.90;;;15.60;59.70;;;;;;7394985;19;20039;-85
2022/04/12 05:03:12;;;;;;;13.50;5.10;;;15.60;59.70;;;;;;7372858;19;20014;-84
2022/04/12 05:05:41;;;;;;;;;;;15.60;59.70;;;;;;7373733;19;20050;-85
2022/04/12 05:08:10;;;;;;;10.40;6.63;;;15.60;59.90;;;;;;7374946;19;20254;-85
2022/04/12 05:10:38;;;;;;;13.23;5.88;;;15.60;59.80;;;;;;7373897;19;20783;-86
2022/04/12 05:13:07;;;;;;;10.35;5.93;;;15.50;59.70;;;;;;7374996;19;20031;-84
2022/04/12 05:15:36;;;;;;;10.05;5.50;;;15.50;59.70;;;;;;7395602;19;20039;-85
2022/04/12 05:18:05;;;;;;;11.68;5.05;;;15.50;59.60;;;;;;7376122;19;20031;-84
2022/04/12 05:20:36;;;;;;;6.78;4.00;;;15.50;59.50;;;;;;7374689;19;20022;-85
2022/04/12 05:23:05;;;;;;;6.97;4.32;;;15.50;59.50;;;;;;7373231;19;20082;-84
2022/04/12 05:25:34;;;;;;;14.85;4.43;;;15.50;59.50;;;;;;7373574;19;20015;-84
2022/04/12 05:28:03;;;;;;;6.32;3.40;;;15.40;59.50;;;;;;7370610;19;20082;-85
2022/04/12 05:30:31;;;;;;;9.50;3.65;;;15.40;59.50;;;;;;7394159;19;20010;-84
2022/04/12 05:33:00;;;;;;;6.85;3.55;;;15.40;59.40;;;;;;7374066;19;20035;-85
2022/04/12 05:35:29;;;;;;;6.93;3.55;;;15.40;59.50;;;;;;7374835;19;20027;-84
2022/04/12 05:38:01;;;;;;;12.90;4.10;;;15.40;59.50;;;;;;7372923;19;20022;-85
2022/04/12 05:40:30;;;;;;;11.73;3.88;;;15.40;59.50;;;;;;7374028;19;20014;-84
2022/04/12 05:42:59;;;;;;;11.48;3.95;;;15.40;59.50;;;;;;7377588;19;20029;-84
2022/04/12 05:45:28;;;;;;;10.68;3.67;;;15.50;59.50;;;;;;7399853;19;20015;-84
2022/04/12 05:47:57;;;;;;;7.80;3.60;;;15.50;59.40;;;;;;7375511;19;20022;-84
2022/04/12 05:50:27;;;;;;;10.85;4.07;;;15.50;59.20;;;;;;7380091;19;20018;-85
2022/04/12 05:52:57;;;;;;;9.90;3.72;;;15.50;59.80;;;;;;7384829;19;20078;-85
2022/04/12 05:55:29;;;;;;;10.52;3.65;;;15.60;59.20;;;;;;7385331;19;20010;-85
2022/04/12 05:57:59;;;;;;;5.65;3.08;;;15.60;59.10;;;;;;7385666;19;20045;-84
2022/04/12 06:00:29;;;;;;;8.50;3.45;;;15.70;59.00;;;;;;7409223;19;20011;-85
2022/04/12 06:02:59;;;;;;;7.10;3.20;;;15.70;58.90;;;;;;7409871;19;20014;-86
2022/04/12 06:05:32;;;;;;;8.63;2.78;;;15.70;58.80;;;;;;7415061;19;20006;-85
2022/04/12 06:08:03;;;;;;;8.95;3.42;;;15.80;58.80;;;;;;7413114;19;20011;-85
2022/04/12 06:10:34;;;;;;;9.23;3.45;;;15.80;58.30;;;;;;7388695;19;20006;-85
2022/04/12 06:13:03;;;;;;;36.13;6.15;;;15.90;58.20;;;;;;7383371;19;20345;-85
2022/04/12 06:15:32;;;;;;;8.00;3.20;;;15.90;58.10;;;;;;7403419;19;20014;-84
2022/04/12 06:18:01;;;;;;;11.52;3.25;;;16.00;57.80;;;;;;7381079;19;20078;-85
2022/04/12 06:20:29;;;;;;;14.15;3.70;;;15.90;57.60;;;;;;7379698;19;20031;-84
2022/04/12 06:22:58;;;;;;;18.38;4.00;;;16.00;57.60;;;;;;7377404;19;20118;-84
2022/04/12 06:25:27;;;;;;;62.55;11.15;;;16.00;57.60;;;;;;7377149;19;20118;-85
2022/04/12 06:27:58;;;;;;;64.93;10.60;;;16.10;57.40;;;;;;7377153;19;20086;-85
2022/04/12 06:30:30;;;;;;;81.55;11.68;;;16.10;57.20;;;;;;7399494;19;20109;-85
2022/04/12 06:32:59;;;;;;;;;;;16.10;57.00;;;;;;7377600;19;20018;-85
2022/04/12 06:35:28;;;;;;;47.85;8.45;;;16.20;57.00;;;;;;7378056;19;19930;-85
2022/04/12 06:37:57;;;;;;;21.15;4.65;;;16.30;56.70;;;;;;7381808;19;20024;-85
2022/04/12 06:40:27;;;;;;;13.85;3.97;;;16.30;57.40;;;;;;7401083;19;20011;-84
2022/04/12 06:42:58;;;;;;;9.88;3.50;;;16.30;56.50;;;;;;7407974;19;20006;-85
2022/04/12 06:45:27;;;;;;;24.30;6.07;;;16.40;56.50;;;;;;7421178;19;20014;-86
2022/04/12 06:47:58;;;;;;;20.00;4.80;;;16.40;56.50;;;;;;7385922;19;20416;-85
2022/04/12 06:50:27;;;;;;;21.03;5.93;;;16.40;56.20;;;;;;7380800;19;20036;-86
2022/04/12 06:52:57;;;;;;;17.20;4.32;;;16.50;56.30;;;;;;7377550;19;20447;-86
2022/04/12 06:55:26;;;;;;;12.48;2.90;;;16.50;56.10;;;;;;7379730;19;20007;-86
2022/04/12 06:57:58;;;;;;;11.10;3.20;;;16.50;56.00;;;;;;7381075;19;20097;-85
2022/04/12 07:00:28;;;;;;;12.05;3.35;;;16.60;55.90;;;;;;7398733;19;20082;-85
2022/04/12 07:02:56;;;;;;;9.95;3.17;;;16.60;55.60;;;;;;7374981;19;20010;-85
2022/04/12 07:05:25;;;;;;;11.02;2.80;;;16.60;55.70;;;;;;7377596;19;20086;-87
2022/04/12 07:07:54;;;;;;;5.13;2.05;;;16.60;55.30;;;;;;7376867;19;20082;-85
2022/04/12 07:10:23;;;;;;;11.52;2.05;;;16.60;54.00;;;;;;7377233;19;20022;-87
2022/04/12 07:12:54;;;;;;;12.25;2.50;;;16.60;53.60;;;;;;7385894;19;20435;-83
2022/04/12 07:15:26;;;;;;;8.93;3.75;;;16.60;53.50;;;;;;7395921;19;20585;-87
2022/04/12 07:17:54;;;;;;;;;;;16.60;53.40;;;;;;7377692;19;20018;-87
2022/04/12 07:20:23;;;;;;;6.75;2.47;;;16.70;52.70;;;;;;7377659;19;19944;-84
2022/04/12 07:22:52;;;;;;;5.93;2.17;;;16.70;52.80;;;;;;7377240;19;20034;-88
2022/04/12 07:25:21;;;;;;;6.43;1.90;;;16.60;52.40;;;;;;7377486;19;20111;-87
2022/04/12 07:27:50;;;;;;;7.70;2.10;;;16.70;52.60;;;;;;7401080;19;20022;-90
2022/04/12 07:30:19;;;;;;;5.22;1.65;;;16.70;52.70;;;;;;7376667;19;20011;-86
2022/04/12 07:32:50;;;;;;;5.05;1.85;;;16.80;52.40;;;;;;7376606;19;20046;-87
2022/04/12 07:35:19;;;;;;;;;;;16.80;52.10;;;;;;7378541;19;20035;-88
2022/04/12 07:38:14;;;;;;;8.75;1.83;;;17.00;52.30;;;;;;7376767;19;19915;-88
2022/04/12 07:40:53;;;;;;;9.20;1.98;;;16.90;52.10;;;;;;7372820;19;20386;-87
2022/04/12 07:43:42;;;;;;;7.63;2.00;;;17.10;51.80;;;;;;7335146;19;20015;-88
2022/04/12 07:46:24;;;;;;;5.60;1.95;;;17.10;51.70;;;;;;7291595;19;20025;-87
2022/04/12 07:51:41;;;;;;;7.72;1.90;;;17.20;51.60;;;;;;7396865;19;20018;-86
2022/04/12 07:54:11;;;;;;;12.48;1.83;;;17.20;51.50;;;;;;7374099;19;20020;-87
2022/04/12 07:56:43;;;;;;;6.30;2.00;;;17.30;51.50;;;;;;7377793;19;20021;-87
2022/04/12 07:59:22;;;;;;;5.47;2.17;;;17.30;51.50;;;;;;7377462;19;20042;-85
2022/04/12 08:01:54;;;;;;;6.80;1.80;;;17.40;51.90;;;;;;7375029;19;20755;-86
2022/04/12 08:04:26;;;;;;;7.35;2.00;;;17.50;51.20;;;;;;7373713;19;20471;-85
2022/04/12 08:06:55;;;;;;;11.75;2.40;;;17.50;50.90;;;;;;7372972;19;20027;-86
2022/04/12 08:09:24;;;;;;;4.88;2.10;;;17.60;51.00;;;;;;7396433;19;20038;-87
2022/04/12 08:11:53;;;;;;;10.77;2.47;;;17.60;50.90;;;;;;7375845;19;20022;-87
2022/04/12 08:14:22;;;;;;;6.70;1.60;;;17.60;50.70;;;;;;7375525;19;20446;-86
2022/04/12 08:17:07;;;;;;;19.17;3.33;;;17.60;50.60;;;;;;7375869;19;20042;-87
2022/04/12 08:19:38;;;;;;;15.18;2.55;;;17.70;50.70;;;;;;7371641;19;20006;-88
2022/04/12 08:22:08;;;;;;;54.97;30.33;;;17.80;50.80;;;;;;7377263;19;20636;-86
2022/04/12 08:24:37;;;;;;;26.10;11.40;;;17.80;50.50;;;;;;7394352;19;20007;-87
2022/04/12 08:27:06;;;;;;;12.98;3.75;;;17.80;50.60;;;;;;7380866;19;20018;-86
2022/04/12 08:29:35;;;;;;;11.52;4.10;;;17.80;50.20;;;;;;7373418;19;20019;-86
2022/04/12 08:32:04;;;;;;;14.65;4.70;;;17.80;50.60;;;;;;7377445;19;20010;-88
2022/04/12 08:34:33;;;;;;;7.40;2.63;;;17.70;49.80;;;;;;7384611;19;20361;-86
2022/04/12 08:37:05;;;;;;;11.88;2.85;;;17.80;50.90;;;;;;7403213;19;20082;-87
2022/04/12 08:39:36;;;;;;;17.25;2.45;;;17.80;50.20;;;;;;7430905;19;20042;-86
2022/04/12 08:42:06;;;;;;;13.15;2.60;;;17.90;50.30;;;;;;7405269;19;20034;-84
2022/04/12 08:44:39;;;;;;;8.55;1.98;;;17.80;49.90;;;;;;7388794;19;20014;-86
2022/04/12 08:47:10;;;;;;;10.65;1.90;;;17.60;50.10;;;;;;7376480;19;20601;-86
2022/04/12 08:49:39;;;;;;;9.82;1.80;;;17.70;49.70;;;;;;7375875;19;20022;-87
2022/04/12 08:52:13;;;;;;;8.07;1.65;;;17.70;49.80;;;;;;7377822;19;20015;-87
2022/04/12 08:54:42;;;;;;;6.50;1.80;;;17.80;49.70;;;;;;7398287;19;20033;-87
2022/04/12 08:57:12;;;;;;;8.57;1.70;;;17.90;49.20;;;;;;7376740;19;20340;-83
2022/04/12 08:59:42;;;;;;;8.35;1.80;;;18.00;49.30;;;;;;7375699;19;20015;-88
2022/04/12 09:02:12;;;;;;;10.07;2.10;;;17.90;49.20;;;;;;7374878;19;20763;-86
2022/04/12 09:04:41;;;;;;;10.15;1.90;;;18.00;49.70;;;;;;7375197;19;20039;-86
2022/04/12 09:07:14;;;;;;;11.27;1.73;;;18.00;49.40;;;;;;7372717;19;20018;-84
2022/04/12 09:09:45;;;;;;;9.70;1.83;;;18.00;48.80;;;;;;7394224;19;20618;-84
2022/04/12 09:12:17;;;;;;;9.48;1.67;;;18.00;49.20;;;;;;7374399;19;20025;-84
2022/04/12 09:14:52;;;;;;;12.73;2.20;;;18.10;49.50;;;;;;7374500;19;20011;-85
2022/04/12 09:17:23;;;;;;;10.65;1.50;;;18.10;49.60;;;;;;7373926;19;20336;-84
2022/04/12 09:19:55;;;;;;;9.85;2.17;;;18.20;49.10;;;;;;7374663;19;20451;-85
2022/04/12 10:01:42;;;;;;;8.88;3.03;;;18.50;50.00;;;;;;7407885;19;20025;-89
2022/04/12 10:04:15;;;;;;;11.05;1.45;;;18.40;50.40;;;;;;7393812;19;20019;-83
2022/04/12 10:06:47;;;;;;;10.20;2.15;;;18.50;50.10;;;;;;7422267;19;20026;-82
2022/04/12 10:09:20;;;;;;;6.47;1.83;;;18.40;50.00;;;;;;7406023;19;20007;-82
2022/04/12 10:11:50;;;;;;;12.32;2.08;;;18.40;50.40;;;;;;7400334;19;20025;-82
2022/04/12 10:14:20;;;;;;;7.72;1.70;;;18.50;50.40;;;;;;7382335;19;20023;-83
2022/04/12 10:16:49;;;;;;;7.45;1.80;;;18.50;49.80;;;;;;7377884;19;20010;-85
2022/04/12 10:19:21;;;;;;;11.55;2.22;;;18.50;49.90;;;;;;7384686;19;20059;-84
2022/04/12 10:21:50;;;;;;;9.35;1.73;;;18.50;50.10;;;;;;7411677;19;20018;-85
2022/04/12 10:24:21;;;;;;;7.60;1.80;;;18.50;50.10;;;;;;7392563;19;20026;-82
2022/04/12 10:26:53;;;;;;;10.57;2.10;;;18.70;50.20;;;;;;7395609;19;20047;-83
2022/04/12 10:29:22;;;;;;;8.98;1.63;;;18.80;49.50;;;;;;7390476;19;20011;-87
2022/04/12 10:31:58;;;;;;;5.85;1.90;;;18.90;49.40;;;;;;7383577;19;20482;-84
2022/04/12 10:34:30;;;;;;;13.18;2.67;;;19.10;49.50;;;;;;7388838;19;20096;-85
2022/04/12 10:37:04;;;;;;;17.90;2.30;;;19.10;49.40;;;;;;7402273;19;20104;-89
2022/04/12 10:39:36;;;;;;;14.93;2.08;;;19.20;49.30;;;;;;7421224;19;20022;-87
2022/04/12 10:42:07;;;;;;;;;;;19.30;49.80;;;;;;7383515;19;20517;-82
2022/04/12 10:44:40;;;;;;;12.67;1.80;;;19.40;49.60;;;;;;7378258;19;19928;-85
2022/04/12 10:47:22;;;;;;;8.77;1.70;;;19.50;49.50;;;;;;7379386;19;20022;-80
2022/04/12 10:50:02;;;;;;;8.43;1.80;;;19.60;49.20;;;;;;7377800;19;20455;-83
2022/04/12 10:52:50;;;;;;;10.38;1.88;;;19.50;49.60;;;;;;7376761;19;20034;-83
2022/04/12 10:55:22;;;;;;;11.27;2.10;;;19.60;49.20;;;;;;7383019;19;20018;-82
2022/04/12 10:57:55;;;;;;;11.75;2.05;;;19.70;48.60;;;;;;7398706;19;20030;-82
2022/04/12 11:00:25;;;;;;;8.68;1.88;;;19.80;48.90;;;;;;7376060;19;20022;-83
2022/04/12 11:03:00;;;;;;;8.32;2.03;;;19.90;48.80;;;;;;7375551;19;20438;-82
2022/04/12 11:06:08;;;;;;;13.65;2.30;;;19.80;48.40;;;;;;7374681;19;20026;-82
2022/04/12 11:08:57;;;;;;;12.45;2.15;;;19.80;48.70;;;;;;7375392;19;20470;-83
2022/04/12 11:11:31;;;;;;;10.63;1.83;;;19.60;48.10;;;;;;7376161;19;20494;-82
2022/04/12 11:14:26;;;;;;;10.50;2.13;;;19.70;48.50;;;;;;7374457;19;20031;-82
2022/04/12 11:17:02;;;;;;;11.63;2.75;;;19.60;48.70;;;;;;7376356;19;20026;-80
2022/04/12 11:19:43;;;;;;;14.77;1.80;;;19.80;49.00;;;;;;7376407;19;20026;-81
2022/04/12 11:22:16;;;;;;;16.33;2.05;;;19.90;48.20;;;;;;7381035;19;20371;-82
2022/04/12 11:25:19;;;;;;;9.43;2.13;;;20.00;48.10;;;;;;7395480;19;20026;-83
2022/04/12 11:27:49;;;;;;;13.10;2.30;;;20.10;47.80;;;;;;7272402;19;2004518;-79
2022/04/12 11:30:20;;;;;;;22.45;2.35;;;20.30;48.20;;;;;;7397856;19;20106;-82
2022/04/12 11:32:50;;;;;;;7.10;1.70;;;20.20;47.10;;;;;;7376896;19;20042;-80
2022/04/12 11:35:22;;;;;;;10.43;1.88;;;20.20;47.40;;;;;;7376197;19;20018;-83
2022/04/12 11:37:52;;;;;;;11.50;2.42;;;20.20;47.70;;;;;;7374370;19;20439;-82
2022/04/12 11:40:28;;;;;;;8.32;2.03;;;20.40;47.70;;;;;;7374171;19;20023;-82
2022/04/12 11:43:25;;;;;;;11.40;2.22;;;20.40;47.50;;;;;;7378904;19;20042;-81
2022/04/12 11:45:55;;;;;;;23.42;2.75;;;20.40;47.10;;;;;;7379164;19;20028;-88
2022/04/12 11:48:24;;;;;;;51.45;29.45;;;20.40;47.40;;;;;;7408172;19;20060;-84
2022/04/12 11:50:54;;;;;;;27.00;13.95;;;20.40;47.40;;;;;;7391757;19;20010;-91
2022/04/12 11:53:24;;;;;;;18.10;5.03;;;20.40;47.70;;;;;;7396118;19;20045;-91
2022/04/12 11:56:01;;;;;;;19.23;5.90;;;20.60;47.50;;;;;;7391830;19;20014;-91
2022/04/12 11:58:32;;;;;;;13.90;3.33;;;20.60;47.00;;;;;;7382089;19;20042;-79
2022/04/12 12:01:15;;;;;;;14.70;2.80;;;20.60;47.20;;;;;;7378318;19;20018;-84
2022/04/12 12:03:45;;;;;;;9.90;2.38;;;20.70;47.10;;;;;;7399506;19;20879;-84
2022/04/12 12:06:15;;;;;;;8.63;2.22;;;20.70;46.60;;;;;;7374462;19;20011;-84
2022/04/12 12:08:44;;;;;;;9.35;2.08;;;20.70;46.60;;;;;;7384629;19;20030;-84
2022/04/12 12:11:18;;;;;;;14.98;1.88;;;20.80;46.70;;;;;;7385375;19;20022;-84
2022/04/12 12:13:59;;;;;;;6.47;1.83;;;20.70;46.70;;;;;;7382638;19;20419;-83
2022/04/12 12:16:29;;;;;;;11.23;2.00;;;20.70;46.90;;;;;;7380972;19;20082;-83
2022/04/12 12:18:59;;;;;;;8.13;2.00;;;20.90;47.00;;;;;;7374670;19;20010;-81
2022/04/12 12:21:52;;;;;;;11.02;2.10;;;21.10;46.40;;;;;;7395245;19;20018;-83
2022/04/12 12:24:21;;;;;;;12.40;1.95;;;21.30;46.80;;;;;;7382478;19;20010;-85
2022/04/12 12:27:00;;;;;;;11.93;2.15;;;21.40;45.50;;;;;;7377902;19;20014;-82
2022/04/12 12:29:29;;;;;;;8.32;1.73;;;21.50;45.00;;;;;;7374604;19;20021;-82
2022/04/12 12:31:59;;;;;;;7.28;1.90;;;21.60;45.50;;;;;;7374658;19;20015;-83
2022/04/12 12:34:32;;;;;;;12.35;2.10;;;21.70;45.10;;;;;;7374756;19;20017;-83
2022/04/12 12:37:07;;;;;;;7.05;1.70;;;21.60;45.20;;;;;;7375009;19;20014;-83
2022/04/12 12:39:43;;;;;;;8.15;2.10;;;21.60;45.10;;;;;;7401381;19;20018;-82
2022/04/12 12:42:22;;;;;;;12.85;2.58;;;21.40;45.50;;;;;;7382653;19;20019;-85
2022/04/12 12:44:57;;;;;;;8.48;1.88;;;21.40;45.10;;;;;;7372292;19;20018;-83
2022/04/12 12:47:26;;;;;;;9.60;2.20;;;21.30;45.00;;;;;;7377449;19;20473;-83
2022/04/12 12:49:56;;;;;;;7.32;2.17;;;21.30;45.10;;;;;;7373106;19;20021;-85
2022/04/12 12:52:25;;;;;;;11.13;1.85;;;21.30;45.20;;;;;;7381867;19;20479;-81
2022/04/12 12:54:58;;;;;;;6.47;1.55;;;21.20;45.30;;;;;;7391576;19;20089;-82
2022/04/12 12:57:47;;;;;;;7.65;1.58;;;21.00;45.60;;;;;;7409315;19;20022;-84
2022/04/12 13:00:17;;;;;;;13.57;2.05;;;21.00;45.70;;;;;;7382699;19;20014;-85
2022/04/12 13:02:50;;;;;;;8.80;1.50;;;21.00;46.10;;;;;;7382519;19;20014;-84
2022/04/12 13:05:21;;;;;;;7.53;1.52;;;21.00;46.20;;;;;;7388259;19;20011;-82
2022/04/12 13:07:57;;;;;;;10.25;2.00;;;21.10;46.40;;;;;;7390388;19;20014;-85
2022/04/12 13:10:27;;;;;;;6.72;1.95;;;21.30;46.30;;;;;;7380112;19;20013;-83
2022/04/12 13:13:07;;;;;;;11.23;1.92;;;21.50;45.80;;;;;;7388380;19;20048;-83
2022/04/12 13:15:36;;;;;;;10.63;2.13;;;21.70;45.30;;;;;;7383456;19;20014;-86
2022/04/12 13:18:05;;;;;;;14.48;1.85;;;21.80;45.00;;;;;;7385416;19;20058;-85
2022/04/12 13:56:03;;;;;;;13.23;1.90;;;22.20;43.90;;;;;;7377486;19;20066;-89
2022/04/12 13:58:32;;;;;;;26.05;11.15;;;22.20;43.50;;;;;;7395725;19;20039;-89
2022/04/12 14:03:31;;;;;;;14.25;2.63;;;22.30;43.90;;;;;;7375116;19;20022;-79
2022/04/12 14:06:04;;;;;;;10.00;3.60;;;22.50;43.60;;;;;;7371861;19;20024;-81
2022/04/12 14:08:46;;;;;;;7.57;2.65;;;22.70;43.60;;;;;;7373886;19;20030;-81
2022/04/12 14:11:19;;;;;;;10.18;1.83;;;22.80;43.50;;;;;;7366806;19;20018;-80
2022/04/12 14:13:48;;;;;;;7.85;2.03;;;22.90;43.30;;;;;;7369595;19;20010;-80
2022/04/12 14:16:18;;;;;;;11.63;2.17;;;23.00;43.50;;;;;;7368154;19;20014;-80
2022/04/12 14:18:47;;;;;;;11.85;2.47;;;23.10;43.60;;;;;;7388893;19;20019;-79
2022/04/12 14:21:24;;;;;;;12.05;2.33;;;22.90;43.00;;;;;;7370239;19;20090;-81
2022/04/12 14:23:54;;;;;;;7.47;2.28;;;23.00;43.40;;;;;;7369538;19;20006;-80
2022/04/12 14:26:34;;;;;;;10.90;2.05;;;23.00;42.70;;;;;;7369252;19;20385;-80
2022/04/12 14:29:04;;;;;;;9.25;2.15;;;23.10;42.70;;;;;;7373658;19;20023;-78